Jacksonville, Florida
Current Conditions -  °F | °C
As of 10:56 AM on Saturday 25 Oct 2014 (Local Time) from KJAX Reporting Station
Clear Clear  
Wind Chill: 21°   Ceiling: Unl
Heat Index: 21°   Visibility: 10mi
Dew Point: 11°   Wind: 8mph
Humidity: 54%   Direction: 350°N
Pressure: 30.02"   Gusts: NA
Location:  30.32°N, 81.66°W
Report Text: KJAX 251456Z 35007KT 10SM CLR 21/11 A3002 RMK AO2 SLP167 T02060111 50008 $
Loading
Personal Weather Stations






























Interactive Weather Map
Tropical Storm Tracking
New forecast layout! Learn more

10-Day Weather Forecast

Advertisements
Track Severe Weather on mobile